AirNav   Pilot Hours Calculator
 
 1418 users online  

9FL5 Shady Bend Airport
Bell, Florida, USA

GOING TO BELL?


FAA INFORMATION EFFECTIVE 25 FEBRUARY 2021

Location

FAA Identifier: 9FL5
Lat/Long: 29-48-50.8350N 082-55-32.4550W
29-48.847250N 082-55.540917W
29.8141208,-82.9256819
(estimated)
Elevation: 25 ft. / 8 m (estimated)
Variation: 02W (1985)
From city: 5 miles NW of BELL, FL
Time zone: UTC -5 (UTC -4 during Daylight Saving Time)
Zip code: 32619

Airport Operations

Airport use: Private use. Permission required prior to landing
Activation date: 04/1980
Control tower: no
ARTCC: JACKSONVILLE CENTER
FSS: GAINESVILLE FLIGHT SERVICE STATION
Attendance: UNATNDD
Segmented circle: no

Airport Communications

WX AWOS-3PT at CTY (14 nm SW): 120.775 (352-498-0221)

Nearby radio navigation aids

VOR radial/distance  VOR name  Freq  Var
CTYr028/14.4CROSS CITY VORTAC112.0002W
GNVr286/34.8GATORS VORTAC116.2004W

 
NDB name  Hdg/Dist  Freq  Var  ID
LAKE CITY222/28.720403WLCQ .-.. -.-. --.-

Airport Services

Runway Information

Runway 18/36

Dimensions: 3000 x 100 ft. / 914 x 30 m
Surface: turf
RUNWAY 18  RUNWAY 36
Traffic pattern: leftleft

Airport Ownership and Management from official FAA records

Ownership: Privately-owned
Owner: SHADY BEND AIRPARK LLC
5500 NW 72 WAY
BELL, FL 32619
Phone (352) 949-2188
Manager: TRACY CROOK
5500 NW 72 WAY
BELL, FL 32619
Phone (352) 949-2188

Airport Operational Statistics

Aircraft based on the field: 6
Single engine airplanes: 6
    

Additional Remarks

FOR CD CTC JACKSONVILLE ARTCC AT 904-845-1592.

Instrument Procedures

There are no published instrument procedures at 9FL5.

Some nearby airports with instrument procedures:

KCTY - Cross City Airport (14 nm SW)
KLCQ - Lake City Gateway Airport (29 nm NE)
24J - Suwannee County Airport (30 nm N)
KGNV - Gainesville Regional Airport (35 nm E)
X60 - Williston Municipal Airport (36 nm SE)
 
Loc | Ops | Rwys | IFR | FBO | Links
Com | Nav | Svcs | Stats | Notes
Area around 9FL5 (Shady Bend Airport)
 
Road maps at: MapQuest Bing Google
 
Aerial photo
WARNING: Photo may not be current or correct
Aerial photo of 9FL5 (Shady Bend Airport)
Do you have a better or more recent aerial photo of Shady Bend Airport that you would like to share? If so, please send us your photo.

 
Sectional chart

 
Airport distance calculator
Flying to Shady Bend Airport? Find the distance to fly.

From to 9FL5

Sunrise and sunset
Times for 05-Mar-2021
 Local
(UTC-5)
 Zulu
(UTC)
Morning civil twilight06:3011:30
Sunrise06:5411:54
Sunset18:3223:32
Evening civil twilight18:5623:56

Current date and time
Zulu (UTC)  05-Mar-2021 17:57:43
Local (UTC-5)  05-Mar-2021 12:57:43
 
METAR
KCTY 
18nm SW 
051735Z AUTO 04009KT 020V080 10SM CLR A3004 RMK AO2
KLCQ 
29nm NE 
051730Z AUTO 35004KT 10SM CLR 20/01 A3005 RMK AO2
K24J 
30nm N 
051755Z AUTO 02004KT 10SM CLR 21/M00 A3003 RMK A01
KGNV 
34nm E 
051753Z 04008KT 330V060 10SM CLR 23/02 A3004 RMK AO2 SLP171 T02280022 10228 20072 58009
KX60 
36nm SE 
118.425 352-528-9949
051755Z AUTO 06005KT 10SM CLR 24/01 A3002 RMK AO2 T02360011 10238 20054
TAF
KGNV 
34nm E 
051120Z 0512/0612 VRB02KT P6SM SKC FM051500 04008KT P6SM BKN250 FM060200 06005KT P6SM FEW015 BKN120 OVC250 FM060900 05006KT P6SM VCSH SCT015 BKN060 OVC120
NOTAMs
Click for the latest NOTAMs
NOTAMs are issued by the DoD/FAA and will open in a separate window not controlled by AirNav.

 

 
 

Would you like to see your business listed on this page?

 If your business provides an interesting product or service to pilots, flight crews, aircraft, or users of the Shady Bend Airport, you should consider listing it here.  To start the listing process, click on the button below
 
Add a business
 

Other Pages about Shady Bend Airport

Update a link
 
Copyright © AirNav, LLC. All rights reserved. Privacy Policy  Contact